sensor_id;sensor_type;location;lat;lon;timestamp;P1;durP1;ratioP1;P2;durP2;ratioP2
81712;SDS011;71124;44.102;3.080;2023-07-13T00:00:00;3.47;;;1.40;;
81712;SDS011;71124;44.102;3.080;2023-07-13T00:02:25;4.93;;;1.73;;
81712;SDS011;71124;44.102;3.080;2023-07-13T00:04:51;2.85;;;1.38;;
81712;SDS011;71124;44.102;3.080;2023-07-13T00:07:17;2.13;;;1.30;;
81712;SDS011;71124;44.102;3.080;2023-07-13T00:09:45;3.20;;;1.30;;
81712;SDS011;71124;44.102;3.080;2023-07-13T00:12:21;4.28;;;1.40;;
81712;SDS011;71124;44.102;3.080;2023-07-13T00:14:47;3.17;;;1.42;;
81712;SDS011;71124;44.102;3.080;2023-07-13T00:17:12;3.47;;;1.40;;
81712;SDS011;71124;44.102;3.080;2023-07-13T00:19:38;4.05;;;1.77;;
81712;SDS011;71124;44.102;3.080;2023-07-13T00:22:03;4.07;;;1.33;;
81712;SDS011;71124;44.102;3.080;2023-07-13T00:24:28;3.58;;;1.85;;
81712;SDS011;71124;44.102;3.080;2023-07-13T00:26:54;3.97;;;1.58;;
81712;SDS011;71124;44.102;3.080;2023-07-13T00:29:20;5.03;;;1.58;;
81712;SDS011;71124;44.102;3.080;2023-07-13T00:31:46;3.38;;;1.40;;
81712;SDS011;71124;44.102;3.080;2023-07-13T00:34:11;2.72;;;1.35;;
81712;SDS011;71124;44.102;3.080;2023-07-13T00:36:37;2.45;;;1.45;;
81712;SDS011;71124;44.102;3.080;2023-07-13T00:39:03;3.70;;;1.40;;
81712;SDS011;71124;44.102;3.080;2023-07-13T00:41:29;4.03;;;1.58;;
81712;SDS011;71124;44.102;3.080;2023-07-13T00:43:54;3.85;;;1.80;;
81712;SDS011;71124;44.102;3.080;2023-07-13T00:46:21;5.37;;;1.40;;
81712;SDS011;71124;44.102;3.080;2023-07-13T00:48:47;3.80;;;1.50;;
81712;SDS011;71124;44.102;3.080;2023-07-13T00:51:13;3.05;;;1.45;;
81712;SDS011;71124;44.102;3.080;2023-07-13T00:53:40;3.58;;;1.75;;
81712;SDS011;71124;44.102;3.080;2023-07-13T00:56:05;2.47;;;1.10;;
81712;SDS011;71124;44.102;3.080;2023-07-13T00:58:31;2.67;;;1.50;;
81712;SDS011;71124;44.102;3.080;2023-07-13T01:00:57;3.17;;;1.30;;
81712;SDS011;71124;44.102;3.080;2023-07-13T01:03:22;2.13;;;1.30;;
81712;SDS011;71124;44.102;3.080;2023-07-13T01:05:48;3.00;;;1.40;;
81712;SDS011;71124;44.102;3.080;2023-07-13T01:08:14;2.10;;;1.38;;
81712;SDS011;71124;44.102;3.080;2023-07-13T01:10:40;3.45;;;1.20;;
81712;SDS011;71124;44.102;3.080;2023-07-13T01:13:06;2.08;;;1.13;;
81712;SDS011;71124;44.102;3.080;2023-07-13T01:15:42;3.75;;;1.20;;
81712;SDS011;71124;44.102;3.080;2023-07-13T01:18:09;2.58;;;1.20;;
81712;SDS011;71124;44.102;3.080;2023-07-13T01:20:35;3.38;;;1.65;;
81712;SDS011;71124;44.102;3.080;2023-07-13T01:23:01;2.25;;;1.30;;
81712;SDS011;71124;44.102;3.080;2023-07-13T01:25:27;2.72;;;1.40;;
81712;SDS011;71124;44.102;3.080;2023-07-13T01:27:52;2.70;;;1.20;;
81712;SDS011;71124;44.102;3.080;2023-07-13T01:30:17;2.47;;;1.50;;
81712;SDS011;71124;44.102;3.080;2023-07-13T01:32:42;2.70;;;1.37;;
81712;SDS011;71124;44.102;3.080;2023-07-13T01:35:08;1.57;;;1.10;;
81712;SDS011;71124;44.102;3.080;2023-07-13T01:37:33;1.60;;;1.20;;
81712;SDS011;71124;44.102;3.080;2023-07-13T01:40:01;1.65;;;1.20;;
81712;SDS011;71124;44.102;3.080;2023-07-13T01:42:27;2.40;;;1.30;;
81712;SDS011;71124;44.102;3.080;2023-07-13T01:44:52;2.50;;;1.27;;
81712;SDS011;71124;44.102;3.080;2023-07-13T01:47:18;2.23;;;1.20;;
81712;SDS011;71124;44.102;3.080;2023-07-13T01:49:43;2.63;;;1.40;;
81712;SDS011;71124;44.102;3.080;2023-07-13T01:52:11;2.28;;;1.38;;
81712;SDS011;71124;44.102;3.080;2023-07-13T01:54:36;1.63;;;1.03;;
81712;SDS011;71124;44.102;3.080;2023-07-13T01:57:01;1.77;;;1.20;;
81712;SDS011;71124;44.102;3.080;2023-07-13T01:59:27;1.83;;;1.10;;
81712;SDS011;71124;44.102;3.080;2023-07-13T02:01:52;1.83;;;1.00;;
81712;SDS011;71124;44.102;3.080;2023-07-13T02:04:17;1.40;;;0.90;;
81712;SDS011;71124;44.102;3.080;2023-07-13T02:06:42;2.57;;;1.07;;
81712;SDS011;71124;44.102;3.080;2023-07-13T02:09:08;1.67;;;1.10;;
81712;SDS011;71124;44.102;3.080;2023-07-13T02:11:33;1.87;;;1.00;;
81712;SDS011;71124;44.102;3.080;2023-07-13T02:13:59;1.67;;;1.00;;
81712;SDS011;71124;44.102;3.080;2023-07-13T02:16:25;1.85;;;1.15;;
81712;SDS011;71124;44.102;3.080;2023-07-13T02:18:51;1.40;;;1.00;;
81712;SDS011;71124;44.102;3.080;2023-07-13T02:21:17;2.33;;;1.17;;
81712;SDS011;71124;44.102;3.080;2023-07-13T02:23:42;1.40;;;1.00;;
81712;SDS011;71124;44.102;3.080;2023-07-13T02:26:08;1.63;;;0.95;;
81712;SDS011;71124;44.102;3.080;2023-07-13T02:28:33;1.73;;;1.00;;
81712;SDS011;71124;44.102;3.080;2023-07-13T02:31:06;1.50;;;1.00;;
81712;SDS011;71124;44.102;3.080;2023-07-13T02:33:31;2.67;;;1.20;;
81712;SDS011;71124;44.102;3.080;2023-07-13T02:35:56;2.37;;;0.90;;
81712;SDS011;71124;44.102;3.080;2023-07-13T02:38:22;2.07;;;1.10;;
81712;SDS011;71124;44.102;3.080;2023-07-13T02:40:47;2.40;;;0.90;;
81712;SDS011;71124;44.102;3.080;2023-07-13T02:43:12;1.83;;;1.00;;
81712;SDS011;71124;44.102;3.080;2023-07-13T02:45:38;3.30;;;1.20;;
81712;SDS011;71124;44.102;3.080;2023-07-13T02:48:04;1.52;;;1.02;;
81712;SDS011;71124;44.102;3.080;2023-07-13T02:50:29;1.70;;;0.90;;
81712;SDS011;71124;44.102;3.080;2023-07-13T02:52:55;2.90;;;1.10;;
81712;SDS011;71124;44.102;3.080;2023-07-13T02:55:20;1.50;;;0.97;;
81712;SDS011;71124;44.102;3.080;2023-07-13T02:57:45;1.03;;;0.90;;
81712;SDS011;71124;44.102;3.080;2023-07-13T03:00:10;2.20;;;1.33;;
81712;SDS011;71124;44.102;3.080;2023-07-13T03:02:36;1.63;;;0.90;;
81712;SDS011;71124;44.102;3.080;2023-07-13T03:05:01;2.90;;;1.00;;
81712;SDS011;71124;44.102;3.080;2023-07-13T03:07:27;2.35;;;1.10;;
81712;SDS011;71124;44.102;3.080;2023-07-13T03:09:56;1.63;;;1.10;;
81712;SDS011;71124;44.102;3.080;2023-07-13T03:12:21;1.25;;;1.00;;
81712;SDS011;71124;44.102;3.080;2023-07-13T03:14:47;1.23;;;0.90;;
81712;SDS011;71124;44.102;3.080;2023-07-13T03:17:12;2.40;;;0.97;;
81712;SDS011;71124;44.102;3.080;2023-07-13T03:19:37;2.07;;;1.03;;
81712;SDS011;71124;44.102;3.080;2023-07-13T03:22:02;1.92;;;1.00;;
81712;SDS011;71124;44.102;3.080;2023-07-13T03:24:28;1.75;;;0.90;;
81712;SDS011;71124;44.102;3.080;2023-07-13T03:26:54;1.63;;;0.93;;
81712;SDS011;71124;44.102;3.080;2023-07-13T03:29:19;2.50;;;1.00;;
81712;SDS011;71124;44.102;3.080;2023-07-13T03:31:44;2.78;;;1.08;;
81712;SDS011;71124;44.102;3.080;2023-07-13T03:34:09;2.00;;;0.97;;
81712;SDS011;71124;44.102;3.080;2023-07-13T03:36:35;2.70;;;0.90;;
81712;SDS011;71124;44.102;3.080;2023-07-13T03:39:01;1.57;;;1.00;;
81712;SDS011;71124;44.102;3.080;2023-07-13T03:41:26;2.33;;;1.05;;
81712;SDS011;71124;44.102;3.080;2023-07-13T03:43:52;2.25;;;1.30;;
81712;SDS011;71124;44.102;3.080;2023-07-13T03:46:17;2.42;;;1.10;;
81712;SDS011;71124;44.102;3.080;2023-07-13T03:48:44;1.75;;;1.10;;
81712;SDS011;71124;44.102;3.080;2023-07-13T03:51:10;2.03;;;0.90;;
81712;SDS011;71124;44.102;3.080;2023-07-13T03:53:39;1.60;;;1.23;;
81712;SDS011;71124;44.102;3.080;2023-07-13T03:56:05;2.30;;;1.10;;
81712;SDS011;71124;44.102;3.080;2023-07-13T03:58:35;2.93;;;1.10;;
81712;SDS011;71124;44.102;3.080;2023-07-13T04:01:02;2.92;;;1.60;;
81712;SDS011;71124;44.102;3.080;2023-07-13T04:03:28;2.03;;;1.20;;
81712;SDS011;71124;44.102;3.080;2023-07-13T04:05:56;2.67;;;1.35;;
81712;SDS011;71124;44.102;3.080;2023-07-13T04:08:32;6.97;;;1.90;;
81712;SDS011;71124;44.102;3.080;2023-07-13T04:10:58;3.90;;;1.30;;
81712;SDS011;71124;44.102;3.080;2023-07-13T04:13:24;3.47;;;1.88;;
81712;SDS011;71124;44.102;3.080;2023-07-13T04:15:50;19.80;;;2.78;;
81712;SDS011;71124;44.102;3.080;2023-07-13T04:18:15;6.13;;;1.50;;
81712;SDS011;71124;44.102;3.080;2023-07-13T04:20:40;3.25;;;1.33;;
81712;SDS011;71124;44.102;3.080;2023-07-13T04:23:06;4.03;;;1.53;;
81712;SDS011;71124;44.102;3.080;2023-07-13T04:25:31;5.03;;;2.20;;
81712;SDS011;71124;44.102;3.080;2023-07-13T04:27:56;3.78;;;1.58;;
81712;SDS011;71124;44.102;3.080;2023-07-13T04:30:22;1.75;;;1.10;;
81712;SDS011;71124;44.102;3.080;2023-07-13T04:32:47;3.70;;;1.20;;
81712;SDS011;71124;44.102;3.080;2023-07-13T04:35:13;1.85;;;1.35;;
81712;SDS011;71124;44.102;3.080;2023-07-13T04:37:39;2.42;;;1.30;;
81712;SDS011;71124;44.102;3.080;2023-07-13T04:40:04;1.98;;;1.02;;
81712;SDS011;71124;44.102;3.080;2023-07-13T04:42:31;2.65;;;1.20;;
81712;SDS011;71124;44.102;3.080;2023-07-13T04:44:56;2.20;;;1.10;;
81712;SDS011;71124;44.102;3.080;2023-07-13T04:47:21;2.27;;;1.17;;
81712;SDS011;71124;44.102;3.080;2023-07-13T04:49:46;3.70;;;1.20;;
81712;SDS011;71124;44.102;3.080;2023-07-13T04:52:12;2.67;;;1.20;;
81712;SDS011;71124;44.102;3.080;2023-07-13T04:54:37;2.45;;;1.30;;
81712;SDS011;71124;44.102;3.080;2023-07-13T04:57:03;2.90;;;1.30;;
81712;SDS011;71124;44.102;3.080;2023-07-13T04:59:34;4.90;;;1.75;;
81712;SDS011;71124;44.102;3.080;2023-07-13T05:01:59;4.43;;;1.45;;
81712;SDS011;71124;44.102;3.080;2023-07-13T05:04:26;3.78;;;1.63;;
81712;SDS011;71124;44.102;3.080;2023-07-13T05:06:51;2.67;;;1.20;;
81712;SDS011;71124;44.102;3.080;2023-07-13T05:09:17;3.10;;;1.20;;
81712;SDS011;71124;44.102;3.080;2023-07-13T05:11:42;1.93;;;1.40;;
81712;SDS011;71124;44.102;3.080;2023-07-13T05:14:08;3.35;;;1.45;;
81712;SDS011;71124;44.102;3.080;2023-07-13T05:16:34;3.15;;;1.30;;
81712;SDS011;71124;44.102;3.080;2023-07-13T05:19:00;3.72;;;1.50;;
81712;SDS011;71124;44.102;3.080;2023-07-13T05:21:25;2.73;;;1.30;;
81712;SDS011;71124;44.102;3.080;2023-07-13T05:23:50;3.20;;;1.37;;
81712;SDS011;71124;44.102;3.080;2023-07-13T05:26:15;3.17;;;1.50;;
81712;SDS011;71124;44.102;3.080;2023-07-13T05:28:41;1.77;;;1.20;;
81712;SDS011;71124;44.102;3.080;2023-07-13T05:31:07;2.78;;;1.60;;
81712;SDS011;71124;44.102;3.080;2023-07-13T05:33:33;5.38;;;1.50;;
81712;SDS011;71124;44.102;3.080;2023-07-13T05:35:58;3.33;;;1.42;;
81712;SDS011;71124;44.102;3.080;2023-07-13T05:38:25;4.38;;;1.20;;
81712;SDS011;71124;44.102;3.080;2023-07-13T05:40:50;3.70;;;1.33;;
81712;SDS011;71124;44.102;3.080;2023-07-13T05:43:16;2.03;;;1.30;;
81712;SDS011;71124;44.102;3.080;2023-07-13T05:45:41;4.18;;;1.42;;
81712;SDS011;71124;44.102;3.080;2023-07-13T05:48:07;3.00;;;1.27;;
81712;SDS011;71124;44.102;3.080;2023-07-13T05:50:32;2.08;;;1.25;;
81712;SDS011;71124;44.102;3.080;2023-07-13T05:52:57;2.63;;;1.13;;
81712;SDS011;71124;44.102;3.080;2023-07-13T05:55:23;3.28;;;1.20;;
81712;SDS011;71124;44.102;3.080;2023-07-13T05:57:48;3.55;;;1.38;;
81712;SDS011;71124;44.102;3.080;2023-07-13T06:00:14;3.90;;;1.30;;
81712;SDS011;71124;44.102;3.080;2023-07-13T06:02:39;3.45;;;1.27;;
81712;SDS011;71124;44.102;3.080;2023-07-13T06:05:05;3.80;;;1.13;;
81712;SDS011;71124;44.102;3.080;2023-07-13T06:07:30;3.40;;;1.00;;
81712;SDS011;71124;44.102;3.080;2023-07-13T06:09:55;4.13;;;1.07;;
81712;SDS011;71124;44.102;3.080;2023-07-13T06:12:21;3.00;;;1.10;;
81712;SDS011;71124;44.102;3.080;2023-07-13T06:14:46;1.15;;;1.00;;
81712;SDS011;71124;44.102;3.080;2023-07-13T06:17:11;2.27;;;1.10;;
81712;SDS011;71124;44.102;3.080;2023-07-13T06:19:36;1.63;;;0.90;;
81712;SDS011;71124;44.102;3.080;2023-07-13T06:22:02;2.43;;;1.00;;
81712;SDS011;71124;44.102;3.080;2023-07-13T06:24:28;3.28;;;1.08;;
81712;SDS011;71124;44.102;3.080;2023-07-13T06:26:53;16.67;;;2.50;;
81712;SDS011;71124;44.102;3.080;2023-07-13T06:29:19;3.73;;;1.63;;
81712;SDS011;71124;44.102;3.080;2023-07-13T06:31:44;2.30;;;1.50;;
81712;SDS011;71124;44.102;3.080;2023-07-13T06:34:09;5.63;;;1.53;;
81712;SDS011;71124;44.102;3.080;2023-07-13T06:36:34;21.97;;;2.10;;
81712;SDS011;71124;44.102;3.080;2023-07-13T06:39:01;4.85;;;1.33;;
81712;SDS011;71124;44.102;3.080;2023-07-13T06:41:27;2.85;;;1.30;;
81712;SDS011;71124;44.102;3.080;2023-07-13T06:43:52;3.22;;;1.10;;
81712;SDS011;71124;44.102;3.080;2023-07-13T06:46:19;2.30;;;1.05;;
81712;SDS011;71124;44.102;3.080;2023-07-13T06:48:45;3.45;;;1.38;;
81712;SDS011;71124;44.102;3.080;2023-07-13T06:51:10;2.43;;;1.03;;
81712;SDS011;71124;44.102;3.080;2023-07-13T06:53:35;4.50;;;1.17;;
81712;SDS011;71124;44.102;3.080;2023-07-13T06:56:00;1.93;;;0.90;;
81712;SDS011;71124;44.102;3.080;2023-07-13T06:58:26;3.47;;;1.30;;
81712;SDS011;71124;44.102;3.080;2023-07-13T07:00:51;2.77;;;1.00;;
81712;SDS011;71124;44.102;3.080;2023-07-13T07:03:17;2.63;;;1.08;;
81712;SDS011;71124;44.102;3.080;2023-07-13T07:05:42;3.72;;;1.10;;
81712;SDS011;71124;44.102;3.080;2023-07-13T07:08:07;1.37;;;0.87;;
81712;SDS011;71124;44.102;3.080;2023-07-13T07:10:33;3.20;;;1.08;;
81712;SDS011;71124;44.102;3.080;2023-07-13T07:12:59;3.08;;;1.10;;
81712;SDS011;71124;44.102;3.080;2023-07-13T07:15:24;5.77;;;1.23;;
81712;SDS011;71124;44.102;3.080;2023-07-13T07:17:50;2.90;;;1.05;;
81712;SDS011;71124;44.102;3.080;2023-07-13T07:20:15;3.80;;;1.23;;
81712;SDS011;71124;44.102;3.080;2023-07-13T07:22:40;5.23;;;1.40;;
81712;SDS011;71124;44.102;3.080;2023-07-13T07:25:06;4.83;;;1.77;;
81712;SDS011;71124;44.102;3.080;2023-07-13T07:27:31;3.72;;;1.08;;
81712;SDS011;71124;44.102;3.080;2023-07-13T07:29:57;2.65;;;1.05;;
81712;SDS011;71124;44.102;3.080;2023-07-13T07:32:25;4.32;;;1.05;;
81712;SDS011;71124;44.102;3.080;2023-07-13T07:34:50;3.85;;;1.20;;
81712;SDS011;71124;44.102;3.080;2023-07-13T07:37:15;1.83;;;1.00;;
81712;SDS011;71124;44.102;3.080;2023-07-13T07:39:42;1.73;;;0.80;;
81712;SDS011;71124;44.102;3.080;2023-07-13T07:42:07;4.25;;;0.80;;
81712;SDS011;71124;44.102;3.080;2023-07-13T07:44:33;2.93;;;0.90;;
81712;SDS011;71124;44.102;3.080;2023-07-13T07:46:59;3.35;;;1.23;;
81712;SDS011;71124;44.102;3.080;2023-07-13T07:49:24;2.93;;;1.17;;
81712;SDS011;71124;44.102;3.080;2023-07-13T07:51:50;2.35;;;0.80;;
81712;SDS011;71124;44.102;3.080;2023-07-13T07:54:15;3.60;;;0.90;;
81712;SDS011;71124;44.102;3.080;2023-07-13T07:56:41;2.63;;;1.00;;
81712;SDS011;71124;44.102;3.080;2023-07-13T07:59:06;1.37;;;0.70;;
81712;SDS011;71124;44.102;3.080;2023-07-13T08:01:31;3.47;;;0.90;;
81712;SDS011;71124;44.102;3.080;2023-07-13T08:03:57;3.30;;;0.87;;
81712;SDS011;71124;44.102;3.080;2023-07-13T08:06:22;2.83;;;0.93;;
81712;SDS011;71124;44.102;3.080;2023-07-13T08:08:48;3.70;;;0.90;;
81712;SDS011;71124;44.102;3.080;2023-07-13T08:11:13;2.57;;;0.90;;
81712;SDS011;71124;44.102;3.080;2023-07-13T08:13:38;1.50;;;0.70;;
81712;SDS011;71124;44.102;3.080;2023-07-13T08:16:04;2.97;;;0.93;;
81712;SDS011;71124;44.102;3.080;2023-07-13T08:18:30;2.03;;;0.80;;
81712;SDS011;71124;44.102;3.080;2023-07-13T08:20:55;1.97;;;0.70;;
81712;SDS011;71124;44.102;3.080;2023-07-13T08:23:21;1.92;;;0.95;;
81712;SDS011;71124;44.102;3.080;2023-07-13T08:25:51;1.67;;;0.90;;
81712;SDS011;71124;44.102;3.080;2023-07-13T08:28:16;1.83;;;0.80;;
81712;SDS011;71124;44.102;3.080;2023-07-13T08:30:42;2.50;;;0.87;;
81712;SDS011;71124;44.102;3.080;2023-07-13T08:33:07;3.40;;;0.90;;
81712;SDS011;71124;44.102;3.080;2023-07-13T08:35:32;2.20;;;0.67;;
81712;SDS011;71124;44.102;3.080;2023-07-13T08:37:57;0.90;;;0.57;;
81712;SDS011;71124;44.102;3.080;2023-07-13T08:40:24;1.83;;;0.80;;
81712;SDS011;71124;44.102;3.080;2023-07-13T08:42:59;3.50;;;0.80;;
81712;SDS011;71124;44.102;3.080;2023-07-13T08:47:53;2.25;;;0.77;;
81712;SDS011;71124;44.102;3.080;2023-07-13T08:50:21;2.08;;;0.90;;
81712;SDS011;71124;44.102;3.080;2023-07-13T08:52:49;0.90;;;0.60;;
81712;SDS011;71124;44.102;3.080;2023-07-13T08:55:18;2.50;;;0.80;;
81712;SDS011;71124;44.102;3.080;2023-07-13T08:57:46;4.88;;;0.80;;
81712;SDS011;71124;44.102;3.080;2023-07-13T09:00:13;1.27;;;0.70;;
81712;SDS011;71124;44.102;3.080;2023-07-13T09:02:54;2.38;;;0.70;;
81712;SDS011;71124;44.102;3.080;2023-07-13T09:05:28;2.55;;;0.60;;
81712;SDS011;71124;44.102;3.080;2023-07-13T09:15:38;1.98;;;0.90;;
81712;SDS011;71124;44.102;3.080;2023-07-13T09:18:26;1.25;;;0.70;;
81712;SDS011;71124;44.102;3.080;2023-07-13T09:23:21;3.58;;;0.90;;
81712;SDS011;71124;44.102;3.080;2023-07-13T09:25:48;1.70;;;0.88;;
81712;SDS011;71124;44.102;3.080;2023-07-13T09:31:14;2.40;;;0.80;;
81712;SDS011;71124;44.102;3.080;2023-07-13T09:33:32;1.50;;;0.70;;
81712;SDS011;71124;44.102;3.080;2023-07-13T09:36:00;2.88;;;0.90;;
81712;SDS011;71124;44.102;3.080;2023-07-13T09:38:29;3.30;;;0.93;;
81712;SDS011;71124;44.102;3.080;2023-07-13T09:43:26;2.00;;;0.90;;
81712;SDS011;71124;44.102;3.080;2023-07-13T09:45:53;1.27;;;0.82;;
81712;SDS011;71124;44.102;3.080;2023-07-13T09:48:19;2.08;;;0.90;;
81712;SDS011;71124;44.102;3.080;2023-07-13T09:50:44;2.72;;;1.10;;
81712;SDS011;71124;44.102;3.080;2023-07-13T09:53:14;1.63;;;0.85;;
81712;SDS011;71124;44.102;3.080;2023-07-13T09:55:40;1.98;;;0.90;;
81712;SDS011;71124;44.102;3.080;2023-07-13T09:58:13;1.85;;;0.93;;
81712;SDS011;71124;44.102;3.080;2023-07-13T10:00:39;5.10;;;1.33;;
81712;SDS011;71124;44.102;3.080;2023-07-13T10:03:09;2.20;;;1.10;;
81712;SDS011;71124;44.102;3.080;2023-07-13T10:05:39;1.70;;;0.90;;
81712;SDS011;71124;44.102;3.080;2023-07-13T10:08:05;1.58;;;1.00;;
81712;SDS011;71124;44.102;3.080;2023-07-13T10:10:32;4.18;;;1.00;;
81712;SDS011;71124;44.102;3.080;2023-07-13T10:12:58;1.67;;;0.80;;
81712;SDS011;71124;44.102;3.080;2023-07-13T10:15:23;2.37;;;0.87;;
81712;SDS011;71124;44.102;3.080;2023-07-13T10:17:53;3.17;;;0.90;;
81712;SDS011;71124;44.102;3.080;2023-07-13T10:20:20;1.77;;;0.70;;
81712;SDS011;71124;44.102;3.080;2023-07-13T10:22:57;2.10;;;1.00;;
81712;SDS011;71124;44.102;3.080;2023-07-13T10:25:27;4.03;;;0.90;;
81712;SDS011;71124;44.102;3.080;2023-07-13T10:27:54;2.72;;;0.80;;
81712;SDS011;71124;44.102;3.080;2023-07-13T10:32:47;2.67;;;0.80;;
81712;SDS011;71124;44.102;3.080;2023-07-13T10:35:15;4.00;;;0.80;;
81712;SDS011;71124;44.102;3.080;2023-07-13T10:40:26;1.63;;;0.70;;
81712;SDS011;71124;44.102;3.080;2023-07-13T10:42:53;2.17;;;0.82;;
81712;SDS011;71124;44.102;3.080;2023-07-13T10:45:21;2.78;;;0.80;;
81712;SDS011;71124;44.102;3.080;2023-07-13T10:47:47;1.15;;;0.60;;
81712;SDS011;71124;44.102;3.080;2023-07-13T10:50:15;2.85;;;0.75;;
81712;SDS011;71124;44.102;3.080;2023-07-13T10:52:49;1.98;;;1.02;;
81712;SDS011;71124;44.102;3.080;2023-07-13T10:55:53;2.47;;;0.80;;
81712;SDS011;71124;44.102;3.080;2023-07-13T10:58:22;3.20;;;0.90;;
81712;SDS011;71124;44.102;3.080;2023-07-13T11:03:17;1.20;;;0.70;;
81712;SDS011;71124;44.102;3.080;2023-07-13T11:05:43;1.52;;;0.65;;
81712;SDS011;71124;44.102;3.080;2023-07-13T11:08:32;3.13;;;0.80;;
81712;SDS011;71124;44.102;3.080;2023-07-13T11:10:58;1.85;;;0.85;;
81712;SDS011;71124;44.102;3.080;2023-07-13T11:13:37;2.72;;;0.80;;
81712;SDS011;71124;44.102;3.080;2023-07-13T11:16:12;2.08;;;0.75;;
81712;SDS011;71124;44.102;3.080;2023-07-13T11:18:37;3.88;;;0.90;;
81712;SDS011;71124;44.102;3.080;2023-07-13T11:21:12;2.43;;;0.70;;
81712;SDS011;71124;44.102;3.080;2023-07-13T11:23:38;2.25;;;0.80;;
81712;SDS011;71124;44.102;3.080;2023-07-13T11:26:36;2.70;;;0.80;;
81712;SDS011;71124;44.102;3.080;2023-07-13T11:28:52;2.15;;;0.80;;
81712;SDS011;71124;44.102;3.080;2023-07-13T11:31:17;1.70;;;1.00;;
81712;SDS011;71124;44.102;3.080;2023-07-13T11:33:54;0.75;;;0.70;;
81712;SDS011;71124;44.102;3.080;2023-07-13T11:36:22;1.02;;;0.60;;
81712;SDS011;71124;44.102;3.080;2023-07-13T11:39:31;1.55;;;0.65;;
81712;SDS011;71124;44.102;3.080;2023-07-13T11:41:37;1.95;;;0.80;;
81712;SDS011;71124;44.102;3.080;2023-07-13T11:46:36;2.20;;;0.80;;
81712;SDS011;71124;44.102;3.080;2023-07-13T11:49:04;2.53;;;0.60;;
81712;SDS011;71124;44.102;3.080;2023-07-13T11:51:30;1.55;;;0.90;;
81712;SDS011;71124;44.102;3.080;2023-07-13T11:53:56;1.30;;;0.60;;
81712;SDS011;71124;44.102;3.080;2023-07-13T11:56:24;1.70;;;0.80;;
81712;SDS011;71124;44.102;3.080;2023-07-13T11:58:51;2.25;;;0.70;;
81712;SDS011;71124;44.102;3.080;2023-07-13T12:01:21;0.90;;;0.63;;
81712;SDS011;71124;44.102;3.080;2023-07-13T12:03:47;3.70;;;0.88;;
81712;SDS011;71124;44.102;3.080;2023-07-13T12:06:32;1.77;;;0.70;;
81712;SDS011;71124;44.102;3.080;2023-07-13T12:08:58;1.70;;;0.80;;
81712;SDS011;71124;44.102;3.080;2023-07-13T12:11:24;1.15;;;0.77;;
81712;SDS011;71124;44.102;3.080;2023-07-13T12:13:49;3.38;;;0.80;;
81712;SDS011;71124;44.102;3.080;2023-07-13T12:16:17;1.88;;;0.85;;
81712;SDS011;71124;44.102;3.080;2023-07-13T12:18:47;3.28;;;0.68;;
81712;SDS011;71124;44.102;3.080;2023-07-13T12:21:14;3.10;;;0.63;;
81712;SDS011;71124;44.102;3.080;2023-07-13T12:23:42;2.78;;;0.80;;
81712;SDS011;71124;44.102;3.080;2023-07-13T12:26:09;1.27;;;0.60;;
81712;SDS011;71124;44.102;3.080;2023-07-13T12:28:37;2.08;;;0.70;;
81712;SDS011;71124;44.102;3.080;2023-07-13T12:31:07;1.98;;;0.98;;
81712;SDS011;71124;44.102;3.080;2023-07-13T12:33:44;3.03;;;0.90;;
81712;SDS011;71124;44.102;3.080;2023-07-13T12:36:09;0.83;;;0.70;;
81712;SDS011;71124;44.102;3.080;2023-07-13T12:38:36;8.77;;;1.45;;
81712;SDS011;71124;44.102;3.080;2023-07-13T12:41:01;3.10;;;0.70;;
81712;SDS011;71124;44.102;3.080;2023-07-13T12:43:28;2.45;;;0.75;;
81712;SDS011;71124;44.102;3.080;2023-07-13T12:46:02;0.93;;;0.65;;
81712;SDS011;71124;44.102;3.080;2023-07-13T12:48:27;0.60;;;0.60;;
81712;SDS011;71124;44.102;3.080;2023-07-13T12:50:53;1.67;;;0.70;;
81712;SDS011;71124;44.102;3.080;2023-07-13T12:53:20;1.88;;;0.80;;
81712;SDS011;71124;44.102;3.080;2023-07-13T12:55:50;1.08;;;0.60;;
81712;SDS011;71124;44.102;3.080;2023-07-13T12:58:17;1.15;;;0.52;;
81712;SDS011;71124;44.102;3.080;2023-07-13T13:00:47;2.67;;;0.65;;
81712;SDS011;71124;44.102;3.080;2023-07-13T13:05:43;2.00;;;0.90;;
81712;SDS011;71124;44.102;3.080;2023-07-13T13:08:13;1.85;;;0.88;;
81712;SDS011;71124;44.102;3.080;2023-07-13T13:10:38;2.67;;;0.80;;
81712;SDS011;71124;44.102;3.080;2023-07-13T13:13:04;2.58;;;0.85;;
81712;SDS011;71124;44.102;3.080;2023-07-13T13:15:29;2.50;;;0.70;;
81712;SDS011;71124;44.102;3.080;2023-07-13T13:17:55;1.30;;;0.73;;
81712;SDS011;71124;44.102;3.080;2023-07-13T13:20:21;2.08;;;0.88;;
81712;SDS011;71124;44.102;3.080;2023-07-13T13:22:46;2.33;;;1.10;;
81712;SDS011;71124;44.102;3.080;2023-07-13T13:25:12;2.20;;;0.73;;
81712;SDS011;71124;44.102;3.080;2023-07-13T13:27:39;2.83;;;0.90;;
81712;SDS011;71124;44.102;3.080;2023-07-13T13:30:10;1.42;;;0.60;;
81712;SDS011;71124;44.102;3.080;2023-07-13T13:32:35;1.48;;;0.70;;
81712;SDS011;71124;44.102;3.080;2023-07-13T13:35:01;2.10;;;0.77;;
81712;SDS011;71124;44.102;3.080;2023-07-13T13:37:26;1.00;;;0.70;;
81712;SDS011;71124;44.102;3.080;2023-07-13T13:39:51;1.90;;;0.73;;
81712;SDS011;71124;44.102;3.080;2023-07-13T13:42:18;4.07;;;0.80;;
81712;SDS011;71124;44.102;3.080;2023-07-13T13:44:46;2.50;;;0.90;;
81712;SDS011;71124;44.102;3.080;2023-07-13T13:47:18;3.67;;;0.82;;
81712;SDS011;71124;44.102;3.080;2023-07-13T13:49:45;1.58;;;0.90;;
81712;SDS011;71124;44.102;3.080;2023-07-13T13:52:12;1.52;;;0.80;;
81712;SDS011;71124;44.102;3.080;2023-07-13T13:54:38;1.88;;;0.80;;
81712;SDS011;71124;44.102;3.080;2023-07-13T13:57:03;4.90;;;0.95;;
81712;SDS011;71124;44.102;3.080;2023-07-13T13:59:29;1.90;;;0.80;;
81712;SDS011;71124;44.102;3.080;2023-07-13T14:01:57;1.80;;;0.80;;
81712;SDS011;71124;44.102;3.080;2023-07-13T14:04:25;2.13;;;0.70;;
81712;SDS011;71124;44.102;3.080;2023-07-13T14:06:51;2.03;;;0.70;;
81712;SDS011;71124;44.102;3.080;2023-07-13T14:09:18;1.55;;;0.65;;
81712;SDS011;71124;44.102;3.080;2023-07-13T14:11:44;2.20;;;0.90;;
81712;SDS011;71124;44.102;3.080;2023-07-13T14:14:16;2.28;;;0.85;;
81712;SDS011;71124;44.102;3.080;2023-07-13T14:16:43;0.90;;;0.60;;
81712;SDS011;71124;44.102;3.080;2023-07-13T14:19:10;2.58;;;0.88;;
81712;SDS011;71124;44.102;3.080;2023-07-13T14:21:36;1.95;;;0.70;;
81712;SDS011;71124;44.102;3.080;2023-07-13T14:24:01;3.17;;;0.60;;
81712;SDS011;71124;44.102;3.080;2023-07-13T14:26:27;1.92;;;0.80;;
81712;SDS011;71124;44.102;3.080;2023-07-13T14:28:54;4.90;;;0.77;;
81712;SDS011;71124;44.102;3.080;2023-07-13T14:31:19;2.60;;;0.93;;
81712;SDS011;71124;44.102;3.080;2023-07-13T14:33:45;2.15;;;0.80;;
81712;SDS011;71124;44.102;3.080;2023-07-13T14:36:23;1.88;;;1.08;;
81712;SDS011;71124;44.102;3.080;2023-07-13T14:38:50;2.63;;;1.30;;
81712;SDS011;71124;44.102;3.080;2023-07-13T14:41:15;1.10;;;0.57;;
81712;SDS011;71124;44.102;3.080;2023-07-13T14:43:40;2.20;;;0.70;;
81712;SDS011;71124;44.102;3.080;2023-07-13T14:46:07;2.63;;;0.80;;
81712;SDS011;71124;44.102;3.080;2023-07-13T14:51:03;2.50;;;0.70;;
81712;SDS011;71124;44.102;3.080;2023-07-13T14:53:28;3.47;;;0.80;;
81712;SDS011;71124;44.102;3.080;2023-07-13T14:55:53;2.37;;;0.63;;
81712;SDS011;71124;44.102;3.080;2023-07-13T14:58:19;3.53;;;0.77;;
81712;SDS011;71124;44.102;3.080;2023-07-13T15:00:44;2.30;;;0.85;;
81712;SDS011;71124;44.102;3.080;2023-07-13T15:03:20;1.50;;;0.80;;
81712;SDS011;71124;44.102;3.080;2023-07-13T15:05:47;0.90;;;0.60;;
81712;SDS011;71124;44.102;3.080;2023-07-13T15:08:12;2.65;;;0.90;;
81712;SDS011;71124;44.102;3.080;2023-07-13T15:10:37;1.50;;;0.50;;
81712;SDS011;71124;44.102;3.080;2023-07-13T15:13:21;2.53;;;0.80;;
81712;SDS011;71124;44.102;3.080;2023-07-13T15:15:51;1.08;;;0.60;;
81712;SDS011;71124;44.102;3.080;2023-07-13T15:18:19;1.10;;;0.70;;